• Join FlightAware (Why Join?)
  • Login
  • US Flag 
08:26PM EDT


 

Airport Tracker/Info


-or-


 

Live Flight TrackerFlight Track Log ✈ EJA951 ✈ 18-Sep-2013 ✈ KBOS - KMBS

Flight Track Log - Related Links

Times and Time Zones

All times are in EDT time to prevent confusion due to time zone crossing. See the EJA951 flight status page for this flight to view local times or setup timezone preferences in your user account.

Time Position Orientation Groundspeed Altitude Reporting Facility
EDT Latitude Longitude Course Direction KTS MPH feet Rate Location/Type
01:29PM 42.3500 -71.0167 118° Southeast 208 239 800  Level KA90
01:30PM 42.3167 -70.9333 118° Southeast 268 308 6,100 4,380 Climbing KA90
01:32PM 42.3367 -70.8083 78° East 317 365 12,300 3,360 Climbing Boston Center
01:33PM 42.3958 -70.7308 44° Northeast 296 341 14,000 1,320 Climbing Boston Center
01:34PM 42.5003 -70.7419 356° North 296 341 14,900 1,380 Climbing Boston Center
01:35PM 42.5725 -70.8444 314° West 301 346 16,700 1,500 Climbing Boston Center
01:36PM 42.6283 -70.9558 304° West 348 400 18,000 1,080 Climbing Boston Center
01:37PM 42.6967 -71.0983 303° West 404 465 19,000 1,140 Climbing Boston Center
01:38PM 42.7672 -71.2381 305° West 431 496 20,300 1,620 Climbing Boston Center
01:39PM 42.7978 -71.3903 285° West 431 496 22,300 1,860 Climbing Boston Center
01:40PM 42.8097 -71.5514 276° West 431 496 24,100 1,740 Climbing Boston Center
01:41PM 42.8253 -71.7153 277° West 431 496 25,900 1,680 Climbing Boston Center
01:42PM 42.8408 -71.8850 277° West 446 513 27,500 1,560 Climbing Boston Center
01:43PM 42.8561 -72.0606 277° West 458 527 29,100 1,560 Climbing Boston Center
01:44PM 42.8733 -72.2389 278° West 471 542 30,600 1,980 Climbing Boston Center
01:45PM 42.8922 -72.4203 278° West 478 550 33,100 2,520 Climbing Boston Center
01:46PM 42.9108 -72.5903 279° West 477 549 35,800 2,640 Climbing Boston Center
01:47PM 42.9147 -72.7433 272° West 471 542 38,400 2,100 Climbing Boston Center
01:48PM 42.9289 -72.9081 277° West 452 520 40,000 1,320 Climbing Boston Center
01:49PM 42.9508 -73.0925 279° West 445 512 41,100 1,020 Climbing Boston Center
01:50PM 42.9622 -73.2628 275° West 445 512 42,100 900 Climbing Boston Center
01:51PM 42.9694 -73.4161 274° West 454 522 43,000 420 Climbing Boston Center
01:52PM 42.9822 -73.5922 276° West 461 531 43,000  Level Boston Center
01:53PM 42.9969 -73.7714 276° West 473 544 43,000  Level Boston Center
01:54PM 43.0114 -73.9536 276° West 483 556 43,000  Level Boston Center
01:55PM 43.0275 -74.1386 277° West 483 556 43,000  Level Boston Center
01:56PM 43.0414 -74.3236 276° West 488 562 43,000  Level Boston Center
01:57PM 43.0528 -74.5086 275° West 488 562 43,000  Level Boston Center
01:58PM 43.0658 -74.6939 276° West 493 567 43,000  Level Boston Center
01:59PM 43.0783 -74.8961 275° West 493 567 43,000  Level Boston Center
02:00PM 43.0867 -75.0842 274° West 493 567 43,000  Level Boston Center
02:01PM 43.0969 -75.2694 274° West 493 567 43,000  Level Boston Center
02:02PM 43.1067 -75.4547 274° West 498 573 43,000  Level Boston Center
02:03PM 43.1183 -75.6375 275° West 498 573 43,000  Level Boston Center
02:04PM 43.1275 -75.8258 274° West 498 573 43,000  Level Boston Center
02:05PM 43.1367 -76.0028 274° West 493 567 43,000  Level Boston Center
02:06PM 43.1483 -76.2992 273° West 488 562 43,000  Level Cleveland Center
02:08PM 43.1567 -76.4833 274° West 486 559 43,000  Level Cleveland Center
02:09PM 43.1653 -76.6981 273° West 486 559 43,000  Level Cleveland Center
02:10PM 43.1725 -76.8817 273° West 486 559 43,000  Level Cleveland Center
02:11PM 43.1800 -77.0656 273° West 486 559 43,000  Level Cleveland Center
02:12PM 43.1864 -77.2481 273° West 485 558 43,000  Level Cleveland Center
02:13PM 43.1939 -77.4678 273° West 486 559 43,000  Level Cleveland Center
02:14PM 43.2003 -77.6503 273° West 485 558 43,000  Level Cleveland Center
02:15PM 43.2064 -77.8322 273° West 483 556 43,000  Level Cleveland Center
02:16PM 43.2125 -78.0153 273° West 484 557 43,000  Level Cleveland Center
02:17PM 43.2169 -78.1972 272° West 483 556 43,000  Level Cleveland Center
02:18PM 43.2328 -78.4158 276° West 483 556 43,000  Level Cleveland Center
02:19PM 43.2464 -78.6003 276° West 491 565 43,000  Level Cleveland Center
02:20PM 43.2608 -78.7797 276° West 478 550 43,000  Level Cleveland Center
02:21PM 43.2667 -78.9167 273° West 480 552 43,000  Level Toronto Center
02:22PM 43.2833 -79.1000 277° West 480 552 43,000  Level Toronto Center
02:23PM 43.2833 -79.2833 270° West 480 552 43,000  Level Toronto Center
02:24PM 43.3000 -79.4667 277° West 480 552 43,000  Level Toronto Center
02:25PM 43.3167 -79.6500 277° West 490 564 43,000  Level Toronto Center
02:26PM 43.3333 -79.8333 277° West 490 564 43,000  Level Toronto Center
02:27PM 43.3333 -80.0167 270° West 490 564 43,000  Level Toronto Center
02:28PM 43.3500 -80.2000 277° West 490 564 43,000  Level Toronto Center
02:29PM 43.3667 -80.3833 277° West 490 564 43,000 -420 Level Toronto Center
02:30PM 43.3833 -80.5667 277° West 490 564 42,200 -1,260 Descending Toronto Center
02:31PM 43.3833 -80.7833 270° West 490 564 40,500 -1,560 Descending Toronto Center
02:32PM 43.3833 -80.9667 270° West 500 575 39,100 -1,500 Descending Toronto Center
02:33PM 43.4000 -81.1667 277° West 500 575 37,600 -1,440 Descending Toronto Center
02:34PM 43.4167 -81.3500 277° West 500 575 36,300 -1,800 Descending Toronto Center
02:35PM 43.4167 -81.5167 270° West 490 564 34,000 -2,340 Descending Toronto Center
02:36PM 43.4333 -81.7167 277° West 500 575 31,700 -2,400 Descending Toronto Center
02:37PM 43.4333 -81.9333 270° West 510 587 29,300 -2,460 Descending Toronto Center
02:38PM 43.4500 -82.1167 277° West 510 587 26,800 -2,400 Descending Toronto Center
02:38PM 43.4647 -82.2364 280° West 505 581 25,500 -1,980 Descending Cleveland Center
02:39PM 43.4719 -82.4114 273° West 473 544 23,600 -2,040 Descending Cleveland Center
02:40PM 43.4792 -82.5853 273° West 461 531 21,300 -2,160 Descending Cleveland Center
02:41PM 43.4858 -82.7583 273° West 458 527 19,100 -2,040 Descending Cleveland Center
02:42PM 43.4922 -82.9261 273° West 447 514 17,100 -2,280 Descending Cleveland Center
02:44PM 43.4992 -83.1192 273° West 429 494 14,500 -2,160 Descending Cleveland Center
02:45PM 43.5047 -83.2608 273° West 385 443 12,700 -1,800 Descending Cleveland Center
02:46PM 43.5092 -83.4092 272° West 385 443 10,800 -1,560 Descending Cleveland Center
02:47PM 43.5164 -83.5544 274° West 331 381 9,500 -1,440 Descending Cleveland Center
02:48PM 43.5353 -83.6531 285° West 273 314 7,900 -1,740 Descending Cleveland Center
02:49PM 43.5558 -83.7594 285° West 269 310 6,000 -1,860 Descending Cleveland Center
02:50PM 43.5764 -83.8539 287° West 262 302 4,100 -1,080 Descending Cleveland Center
02:51PM 43.5717 -83.9525 266° West 244 281 3,800 -900 Descending Cleveland Center
02:52PM 43.5594 -84.0336 258° West 224 258 2,300 -960 Descending Cleveland Center
02:53PM 43.5794 -84.0925 295° West 178 205 1,900 -420 Descending Cleveland Center
02:55PM 43.5329 -84.0796 166° South  Level Estimated
03:02PM 43.5329 -84.0796 166° South  Level Estimated